createdAt,value
2018-07-25T00:00:04.989Z,15.03
2018-07-25T00:02:33.139Z,15.30
2018-07-25T00:05:01.236Z,15.70
2018-07-25T00:07:29.336Z,16.07
2018-07-25T00:09:57.440Z,13.80
2018-07-25T00:12:25.835Z,14.43
2018-07-25T00:14:53.928Z,15.60
2018-07-25T00:17:22.007Z,16.03
2018-07-25T00:19:50.099Z,13.23
2018-07-25T00:22:18.193Z,14.90
2018-07-25T00:24:46.284Z,15.30
2018-07-25T00:27:15.106Z,16.10
2018-07-25T00:29:44.055Z,15.08
2018-07-25T00:32:12.447Z,15.37
2018-07-25T00:34:40.550Z,16.10
2018-07-25T00:37:08.646Z,15.67
2018-07-25T00:39:36.735Z,16.20
2018-07-25T00:42:04.858Z,16.27
2018-07-25T00:44:32.959Z,16.07
2018-07-25T00:47:01.075Z,15.77
2018-07-25T00:49:29.248Z,15.58
2018-07-25T00:51:57.358Z,16.15
2018-07-25T00:54:25.449Z,16.90
2018-07-25T00:56:53.559Z,16.10
2018-07-25T00:59:21.925Z,17.60
2018-07-25T01:01:50.059Z,16.67
2018-07-25T01:04:18.223Z,18.30
2018-07-25T01:06:46.356Z,17.30
2018-07-25T01:09:14.436Z,17.12
2018-07-25T01:11:42.556Z,16.77
2018-07-25T01:14:10.655Z,14.87
2018-07-25T01:16:39.124Z,17.37
2018-07-25T01:19:07.226Z,17.27
2018-07-25T01:21:35.316Z,18.83
2018-07-25T01:24:03.416Z,16.47
2018-07-25T01:26:31.820Z,17.30
2018-07-25T01:28:59.948Z,17.43
2018-07-25T01:31:28.060Z,17.20
2018-07-25T01:33:56.139Z,16.90
2018-07-25T01:36:24.523Z,16.65
2018-07-25T01:38:52.614Z,16.07
2018-07-25T01:41:20.731Z,17.10
2018-07-25T01:43:48.814Z,17.90
2018-07-25T01:46:18.622Z,17.23
2018-07-25T01:48:47.330Z,16.00
2018-07-25T01:51:15.435Z,17.80
2018-07-25T01:56:47.626Z,19.73
2018-07-25T01:59:15.737Z,16.83
2018-07-25T02:01:43.890Z,18.43
2018-07-25T02:04:12.459Z,17.43
2018-07-25T02:06:40.603Z,19.90
2018-07-25T02:09:10.637Z,17.80
2018-07-25T02:11:38.911Z,17.20
2018-07-25T02:14:07.136Z,18.10
2018-07-25T02:16:35.303Z,19.90
2018-07-25T02:49:34.002Z,20.33
2018-07-25T02:52:02.225Z,18.17
2018-07-25T02:54:30.378Z,20.72
2018-07-25T02:56:58.625Z,19.07
2018-07-25T02:59:26.724Z,22.47
2018-07-25T03:01:54.922Z,21.57
2018-07-25T04:35:49.121Z,24.30
2018-07-25T04:38:17.285Z,23.18
2018-07-25T04:40:45.717Z,25.08
2018-07-25T04:43:13.823Z,23.30
2018-07-25T05:07:02.802Z,25.50
2018-07-25T05:09:30.900Z,26.70
2018-07-25T05:11:59.014Z,25.57
2018-07-25T05:14:27.755Z,24.30
2018-07-25T05:16:55.874Z,27.63
2018-07-25T05:19:23.967Z,26.03
2018-07-25T05:31:00.504Z,25.52
2018-07-25T05:33:29.471Z,26.60
2018-07-25T05:35:57.678Z,21.95
2018-07-25T05:38:25.961Z,23.20
2018-07-25T05:40:54.076Z,19.80
2018-07-25T05:43:22.176Z,20.07
2018-07-25T05:45:50.319Z,19.73
2018-07-25T05:48:18.400Z,17.13
2018-07-25T05:50:46.524Z,16.57
2018-07-25T05:53:14.923Z,18.23
2018-07-25T05:55:49.871Z,18.50
2018-07-25T05:58:18.247Z,18.53
2018-07-25T06:00:46.351Z,20.07
2018-07-25T06:03:14.508Z,19.60
2018-07-25T06:05:42.547Z,19.23
2018-07-25T06:08:10.652Z,18.47
2018-07-25T06:10:38.752Z,19.10
2018-07-25T06:13:06.866Z,18.17
2018-07-25T06:15:40.935Z,16.80
2018-07-25T06:18:09.040Z,16.73
2018-07-25T06:20:37.208Z,18.07
2018-07-25T06:23:05.255Z,19.80
2018-07-25T06:25:33.363Z,20.03
2018-07-25T06:28:02.009Z,19.83
2018-07-25T06:30:30.084Z,19.60
2018-07-25T06:32:58.549Z,20.40
2018-07-25T06:35:27.281Z,19.80
2018-07-25T06:37:55.448Z,20.45
2018-07-25T06:40:23.533Z,20.32
2018-07-25T06:42:52.121Z,21.00
2018-07-25T06:45:20.252Z,23.53
2018-07-25T06:47:48.344Z,25.13
2018-07-25T06:50:16.447Z,25.93
2018-07-25T06:52:44.863Z,26.87
2018-07-25T06:55:12.934Z,26.85
2018-07-25T06:57:41.043Z,27.20
2018-07-25T07:00:09.147Z,27.43
2018-07-25T07:02:37.253Z,27.00
2018-07-25T07:05:05.353Z,28.53
2018-07-25T07:07:33.465Z,28.33
2018-07-25T07:10:01.549Z,28.33
2018-07-25T07:12:31.145Z,27.70
2018-07-25T07:15:01.106Z,29.25
2018-07-25T07:17:29.251Z,29.60
2018-07-25T07:19:57.612Z,28.60
2018-07-25T07:22:25.706Z,28.63
2018-07-25T07:24:53.817Z,27.13
2018-07-25T07:27:21.908Z,27.13
2018-07-25T07:29:50.009Z,26.77
2018-07-25T07:32:18.107Z,26.23
2018-07-25T07:34:46.202Z,27.23
2018-07-25T07:37:14.396Z,27.58
2018-07-25T07:39:42.460Z,26.13
2018-07-25T07:42:10.899Z,26.73
2018-07-25T07:44:39.016Z,26.93
2018-07-25T07:47:07.218Z,25.50
2018-07-25T07:49:36.058Z,27.13
2018-07-25T07:52:04.156Z,27.10
2018-07-25T07:54:32.308Z,25.03
2018-07-25T07:57:00.673Z,25.37
2018-07-25T07:59:28.827Z,25.57
2018-07-25T08:01:56.867Z,28.43
2018-07-25T08:04:25.267Z,27.97
2018-07-25T08:06:53.367Z,28.03
2018-07-25T08:09:21.520Z,27.63
2018-07-25T08:11:49.639Z,27.30
2018-07-25T08:14:17.753Z,25.53
2018-07-25T08:16:45.851Z,28.07
2018-07-25T08:19:13.951Z,25.40
2018-07-25T08:21:42.053Z,26.77
2018-07-25T08:24:10.156Z,25.00
2018-07-25T08:26:38.265Z,24.30
2018-07-25T08:29:06.363Z,26.40
2018-07-25T08:31:34.983Z,24.32
2018-07-25T08:34:04.076Z,21.07
2018-07-25T08:36:32.191Z,25.83
2018-07-25T08:39:00.303Z,23.97
2018-07-25T08:41:28.403Z,23.17
2018-07-25T08:43:56.490Z,21.40
2018-07-25T08:46:24.760Z,20.40
2018-07-25T08:48:52.851Z,13.00
2018-07-25T08:51:20.948Z,15.90
2018-07-25T08:53:49.067Z,19.23
2018-07-25T08:56:17.145Z,8.70
2018-07-25T08:58:45.271Z,11.78
2018-07-25T09:01:13.358Z,8.97
2018-07-25T09:03:41.460Z,8.97
2018-07-25T09:06:09.560Z,8.90
2018-07-25T09:08:37.650Z,10.30
2018-07-25T09:11:05.887Z,13.03
2018-07-25T09:13:33.970Z,8.03
2018-07-25T09:16:02.096Z,8.83
2018-07-25T09:18:30.212Z,9.67
2018-07-25T09:20:58.304Z,8.53
2018-07-25T09:23:26.389Z,9.50
2018-07-25T09:25:54.488Z,8.10
2018-07-25T09:28:22.589Z,9.03
2018-07-25T09:30:50.683Z,9.50
2018-07-25T09:33:18.793Z,9.73
2018-07-25T09:35:46.931Z,7.40
2018-07-25T09:38:15.016Z,8.00
2018-07-25T09:40:43.116Z,6.37
2018-07-25T09:43:11.199Z,6.83
2018-07-25T09:45:39.302Z,7.80
2018-07-25T09:48:07.387Z,7.90
2018-07-25T09:50:35.479Z,7.50
2018-07-25T09:55:56.562Z,8.00
2018-07-25T09:58:24.650Z,7.33
2018-07-25T10:00:52.820Z,8.07
2018-07-25T10:03:21.102Z,7.33
2018-07-25T10:05:49.232Z,7.80
2018-07-25T10:08:17.861Z,7.00
2018-07-25T10:10:46.043Z,6.83
2018-07-25T10:13:14.147Z,7.40
2018-07-25T10:15:42.242Z,7.40
2018-07-25T10:18:10.358Z,7.97
2018-07-25T10:20:38.521Z,7.03
2018-07-25T10:23:06.639Z,7.83
2018-07-25T10:25:34.735Z,7.47
2018-07-25T10:28:02.838Z,6.62
2018-07-25T10:30:30.936Z,7.37
2018-07-25T10:32:59.141Z,7.63
2018-07-25T10:35:27.131Z,8.60
2018-07-25T10:37:55.253Z,6.50
2018-07-25T10:40:23.794Z,7.50
2018-07-25T10:42:51.883Z,7.73
2018-07-25T10:45:19.978Z,8.03
2018-07-25T10:47:48.079Z,7.10
2018-07-25T10:50:16.165Z,7.07
2018-07-25T10:52:44.264Z,7.47
2018-07-25T10:55:12.366Z,7.53
2018-07-25T10:57:40.796Z,8.23
2018-07-25T11:00:09.063Z,7.77
2018-07-25T11:02:37.571Z,6.10
2018-07-25T11:05:05.703Z,5.90
2018-07-25T11:07:33.811Z,7.80
2018-07-25T11:10:01.892Z,5.95
2018-07-25T11:12:29.983Z,6.83
2018-07-25T11:14:58.475Z,5.23
2018-07-25T11:17:26.598Z,6.27
2018-07-25T11:19:54.689Z,5.80
2018-07-25T11:22:22.786Z,5.23
2018-07-25T11:24:50.881Z,5.03
2018-07-25T11:27:18.998Z,4.60
2018-07-25T11:29:47.100Z,5.97
2018-07-25T11:32:15.192Z,4.28
2018-07-25T11:34:43.993Z,4.97
2018-07-25T11:37:12.103Z,4.80
2018-07-25T11:39:40.195Z,5.10
2018-07-25T11:42:08.297Z,5.17
2018-07-25T11:44:36.383Z,4.40
2018-07-25T11:47:04.474Z,4.67
2018-07-25T11:49:32.575Z,4.67
2018-07-25T11:52:00.664Z,3.63
2018-07-25T11:54:28.733Z,3.97
2018-07-25T11:56:56.831Z,4.22
2018-07-25T11:59:24.943Z,4.90
2018-07-25T12:01:53.041Z,4.93
2018-07-25T12:04:21.127Z,4.50
2018-07-25T12:06:49.229Z,5.17
2018-07-25T12:09:17.339Z,6.13
2018-07-25T12:11:46.709Z,4.57
2018-07-25T12:14:16.012Z,4.92
2018-07-25T12:16:44.150Z,5.17
2018-07-25T12:19:12.268Z,5.10
2018-07-25T12:21:41.256Z,5.20
2018-07-25T12:24:09.344Z,4.40
2018-07-25T12:26:37.498Z,5.93
2018-07-25T12:29:05.576Z,5.20
2018-07-25T12:31:33.659Z,4.73
2018-07-25T12:34:01.767Z,4.90
2018-07-25T12:36:29.855Z,5.30
2018-07-25T12:38:57.944Z,5.63
2018-07-25T12:41:26.036Z,5.47
2018-07-25T12:43:54.158Z,5.70
2018-07-25T12:46:22.228Z,5.25
2018-07-25T12:48:50.335Z,5.57
2018-07-25T12:51:18.424Z,5.33
2018-07-25T12:53:46.606Z,5.22
2018-07-25T12:56:14.611Z,4.80
2018-07-25T12:58:42.712Z,4.70
2018-07-25T13:01:11.298Z,5.00
2018-07-25T13:03:39.409Z,4.30
2018-07-25T13:06:07.506Z,4.40
2018-07-25T13:08:36.574Z,4.43
2018-07-25T13:11:04.648Z,4.33
2018-07-25T13:13:32.741Z,5.07
2018-07-25T13:16:00.833Z,4.33
2018-07-25T13:18:28.920Z,4.10
2018-07-25T13:20:57.923Z,4.03
2018-07-25T13:23:26.024Z,4.15
2018-07-25T13:25:54.138Z,4.42
2018-07-25T13:28:22.280Z,4.23
2018-07-25T13:30:50.471Z,3.90
2018-07-25T13:33:18.575Z,3.40
2018-07-25T13:35:46.679Z,4.30
2018-07-25T13:38:14.870Z,3.90
2018-07-25T13:40:43.660Z,4.45
2018-07-25T13:43:11.759Z,5.37
2018-07-25T13:45:39.973Z,10.73
2018-07-25T13:48:07.949Z,4.97
2018-07-25T13:50:36.033Z,4.30
2018-07-25T13:53:04.171Z,5.13
2018-07-25T13:55:32.253Z,4.50
2018-07-25T13:58:00.676Z,5.10
2018-07-25T14:00:28.784Z,5.20
2018-07-25T14:02:56.875Z,6.50
2018-07-25T14:05:24.982Z,6.37
2018-07-25T14:07:53.111Z,7.55
2018-07-25T14:10:24.427Z,6.50
2018-07-25T14:12:52.785Z,6.20
2018-07-25T14:15:20.969Z,6.50
2018-07-25T14:17:49.384Z,6.67
2018-07-25T14:20:17.712Z,7.20
2018-07-25T14:22:46.084Z,6.40
2018-07-25T14:25:15.172Z,7.00
2018-07-25T14:27:43.295Z,5.93
2018-07-25T14:30:11.461Z,5.73
2018-07-25T14:32:39.555Z,5.80
2018-07-25T14:35:07.650Z,6.50
2018-07-25T14:37:35.728Z,6.57
2018-07-25T14:40:03.999Z,6.17
2018-07-25T14:42:32.045Z,6.63
2018-07-25T14:45:00.160Z,6.10
2018-07-25T14:47:28.279Z,6.10
2018-07-25T14:49:56.387Z,6.67
2018-07-25T14:52:24.807Z,9.50
2018-07-25T14:54:52.876Z,8.00
2018-07-25T14:57:21.003Z,6.63
2018-07-25T14:59:49.115Z,3.73
2018-07-25T15:02:17.228Z,6.70
2018-07-25T15:04:45.324Z,5.83
2018-07-25T15:07:13.789Z,6.45
2018-07-25T15:09:41.879Z,4.93
2018-07-25T15:12:09.972Z,5.43
2018-07-25T15:14:38.065Z,5.43
2018-07-25T15:17:06.196Z,3.33
2018-07-25T15:19:34.281Z,3.97
2018-07-25T15:22:02.412Z,4.07
2018-07-25T15:24:30.500Z,4.13
2018-07-25T15:26:58.594Z,3.30
2018-07-25T15:29:26.788Z,5.50
2018-07-25T15:31:54.816Z,3.77
2018-07-25T15:34:22.916Z,3.23
2018-07-25T15:36:52.280Z,5.30
2018-07-25T15:39:23.512Z,4.10
2018-07-25T15:41:52.213Z,3.60
2018-07-25T15:44:21.626Z,3.57
2018-07-25T15:46:49.732Z,4.17
2018-07-25T15:49:18.180Z,3.95
2018-07-25T15:51:46.276Z,4.37
2018-07-25T15:54:14.384Z,3.60
2018-07-25T15:56:42.506Z,4.43
2018-07-25T15:59:10.588Z,4.50
2018-07-25T16:01:38.720Z,3.47
2018-07-25T16:04:06.895Z,3.83
2018-07-25T16:06:35.018Z,3.83
2018-07-25T16:09:03.492Z,4.90
2018-07-25T16:11:32.552Z,4.83
2018-07-25T16:14:01.600Z,5.80
2018-07-25T16:16:29.980Z,4.57
2018-07-25T16:18:58.063Z,3.90
2018-07-25T16:21:26.166Z,3.55
2018-07-25T16:23:54.262Z,4.37
2018-07-25T16:26:22.389Z,3.70
2018-07-25T16:28:50.476Z,3.93
2018-07-25T16:31:18.598Z,7.47
2018-07-25T16:33:46.687Z,4.05
2018-07-25T16:36:15.060Z,4.30
2018-07-25T16:38:43.158Z,5.03
2018-07-25T16:41:11.250Z,4.40
2018-07-25T16:43:39.352Z,3.43
2018-07-25T16:46:07.454Z,4.30
2018-07-25T16:48:35.598Z,4.20
2018-07-25T16:51:03.768Z,3.67
2018-07-25T16:53:31.856Z,3.90
2018-07-25T16:55:59.926Z,5.05
2018-07-25T16:58:28.040Z,3.27
2018-07-25T17:00:56.133Z,3.80
2018-07-25T17:03:24.241Z,3.37
2018-07-25T17:05:52.336Z,8.53
2018-07-25T17:08:21.612Z,3.50
2018-07-25T17:10:49.710Z,3.60
2018-07-25T17:13:17.803Z,3.90
2018-07-25T17:15:45.890Z,3.83
2018-07-25T17:18:16.049Z,4.03
2018-07-25T17:20:45.718Z,4.77
2018-07-25T17:23:13.806Z,4.40
2018-07-25T17:25:41.898Z,6.63
2018-07-25T17:28:09.987Z,3.67
2018-07-25T17:30:38.108Z,4.03
2018-07-25T17:33:06.240Z,4.27
2018-07-25T17:35:34.367Z,5.30
2018-07-25T17:38:02.456Z,5.77
2018-07-25T17:40:30.564Z,4.73
2018-07-25T17:42:58.982Z,5.13
2018-07-25T17:45:27.070Z,4.78
2018-07-25T17:47:55.166Z,4.80
2018-07-25T17:50:23.252Z,4.60
2018-07-25T17:52:51.374Z,9.57
2018-07-25T17:55:19.439Z,5.03
2018-07-25T17:57:47.531Z,5.90
2018-07-25T18:00:15.638Z,4.87
2018-07-25T18:02:43.751Z,5.00
2018-07-25T18:05:11.824Z,4.63
2018-07-25T18:07:39.917Z,4.00
2018-07-25T18:10:08.037Z,3.47
2018-07-25T18:12:36.191Z,5.10
2018-07-25T18:15:05.947Z,2.87
2018-07-25T18:17:34.063Z,3.45
2018-07-25T18:20:02.157Z,6.13
2018-07-25T18:22:30.239Z,3.43
2018-07-25T18:24:58.323Z,3.53
2018-07-25T18:27:26.450Z,2.83
2018-07-25T18:29:54.547Z,3.80
2018-07-25T18:32:22.647Z,10.83
2018-07-25T18:34:50.742Z,3.00
2018-07-25T18:37:18.871Z,5.13
2018-07-25T18:39:46.964Z,4.40
2018-07-25T18:42:15.122Z,3.30
2018-07-25T18:44:43.234Z,2.40
2018-07-25T18:47:11.364Z,4.05
2018-07-25T18:49:39.392Z,2.80
2018-07-25T18:52:07.512Z,3.52
2018-07-25T18:54:35.602Z,2.77
2018-07-25T18:57:03.689Z,3.27
2018-07-25T18:59:31.789Z,2.23
2018-07-25T19:01:59.888Z,3.20
2018-07-25T19:04:27.989Z,2.90
2018-07-25T19:06:56.081Z,2.27
2018-07-25T19:09:24.676Z,2.77
2018-07-25T19:11:53.672Z,3.63
2018-07-25T19:14:27.272Z,2.50
2018-07-25T19:26:42.466Z,4.13
2018-07-25T19:29:10.553Z,2.73
2018-07-25T19:31:38.624Z,3.30
2018-07-25T19:34:06.729Z,3.70
2018-07-25T19:36:34.801Z,4.50
2018-07-25T19:39:02.907Z,2.77
2018-07-25T19:41:31.019Z,2.40
2018-07-25T19:43:59.132Z,4.90
2018-07-25T19:46:27.875Z,6.80
2018-07-25T19:48:55.963Z,3.90
2018-07-25T19:51:24.080Z,8.67
2018-07-25T19:53:52.189Z,3.43
2018-07-25T19:56:20.332Z,4.63
2018-07-25T19:58:48.419Z,2.53
2018-07-25T20:01:16.543Z,2.50
2018-07-25T20:03:44.621Z,5.63
2018-07-25T20:06:12.712Z,5.35
2018-07-25T20:08:40.828Z,3.00
2018-07-25T20:11:08.929Z,3.17
2018-07-25T20:13:41.199Z,2.90
2018-07-25T20:16:09.297Z,4.87
2018-07-25T20:18:37.400Z,3.57
2018-07-25T20:21:05.690Z,5.17
2018-07-25T20:23:33.769Z,2.60
2018-07-25T20:26:01.847Z,6.13
2018-07-25T20:28:29.966Z,6.03
2018-07-25T20:30:58.060Z,3.57
2018-07-25T20:33:27.166Z,5.50
2018-07-25T20:35:55.324Z,5.53
2018-07-25T20:38:23.344Z,6.20
2018-07-25T20:40:51.457Z,5.50
2018-07-25T20:43:19.538Z,4.67
2018-07-25T20:45:47.655Z,6.87
2018-07-25T20:48:15.731Z,3.23
2018-07-25T20:50:43.825Z,6.45
2018-07-25T20:53:11.903Z,5.33
2018-07-25T20:55:40.009Z,3.70
2018-07-25T20:58:08.096Z,4.55
2018-07-25T21:00:36.768Z,5.80
2018-07-25T21:03:06.305Z,4.10
2018-07-25T21:05:34.498Z,6.00
2018-07-25T21:08:02.597Z,5.83
2018-07-25T21:10:30.733Z,3.17
2018-07-25T21:12:58.832Z,3.77
2018-07-25T21:15:27.032Z,5.37
2018-07-25T21:17:55.156Z,3.40
2018-07-25T21:20:23.803Z,3.58
2018-07-25T21:22:51.891Z,5.70
2018-07-25T21:25:20.020Z,4.27
2018-07-25T21:27:48.111Z,4.47
2018-07-25T21:30:16.234Z,3.87
2018-07-25T21:32:44.554Z,4.13
2018-07-25T21:35:12.633Z,3.93
2018-07-25T21:37:40.775Z,5.70
2018-07-25T21:40:08.896Z,6.63
2018-07-25T21:42:43.875Z,5.40
2018-07-25T21:45:11.955Z,4.77
2018-07-25T21:47:40.043Z,5.90
2018-07-25T21:50:08.170Z,3.60
2018-07-25T21:52:36.267Z,5.20
2018-07-25T21:55:04.422Z,3.67
2018-07-25T21:57:32.517Z,3.33
2018-07-25T22:02:46.875Z,6.47
2018-07-25T22:05:15.071Z,7.00
2018-07-25T22:07:43.837Z,6.37
2018-07-25T22:10:11.933Z,4.57
2018-07-25T22:12:40.699Z,4.17
2018-07-25T22:15:09.898Z,11.13
2018-07-25T22:17:38.235Z,10.73
2018-07-25T22:20:08.095Z,5.72
2018-07-25T22:22:36.176Z,6.60
2018-07-25T22:25:04.269Z,4.70
2018-07-25T22:27:32.380Z,5.33
2018-07-25T22:30:00.481Z,4.97
2018-07-25T22:32:28.771Z,4.87
2018-07-25T22:34:56.861Z,5.20
2018-07-25T22:37:25.019Z,4.70
2018-07-25T22:39:53.429Z,5.28
2018-07-25T22:42:21.526Z,4.05
2018-07-25T22:44:49.607Z,7.03
2018-07-25T22:47:17.694Z,8.60
2018-07-25T22:49:45.796Z,9.43
2018-07-25T22:52:13.894Z,6.67
2018-07-25T22:54:41.967Z,5.17
2018-07-25T22:57:10.084Z,6.43
2018-07-25T22:59:38.176Z,4.67
2018-07-25T23:02:06.972Z,5.03
2018-07-25T23:04:35.065Z,4.00
2018-07-25T23:07:03.179Z,4.40
2018-07-25T23:09:31.264Z,5.40
2018-07-25T23:11:59.370Z,4.20
2018-07-25T23:14:27.465Z,5.13
2018-07-25T23:16:55.546Z,3.77
2018-07-25T23:19:23.639Z,10.13
2018-07-25T23:21:51.730Z,5.63
2018-07-25T23:24:19.817Z,7.90
2018-07-25T23:26:47.898Z,4.80
2018-07-25T23:29:15.999Z,9.07
2018-07-25T23:31:44.191Z,4.50
2018-07-25T23:34:12.279Z,4.63
2018-07-25T23:36:40.379Z,5.07
2018-07-25T23:39:09.545Z,4.50
2018-07-25T23:41:37.872Z,4.67
2018-07-25T23:44:05.968Z,7.93
2018-07-25T23:46:34.055Z,4.60
2018-07-25T23:49:02.157Z,5.93
2018-07-25T23:51:30.246Z,6.30
2018-07-25T23:53:58.330Z,4.87
2018-07-25T23:56:26.411Z,4.70
2018-07-25T23:58:54.523Z,5.07
